Time;durP1;ratioP1;P1;durP2;ratioP2;P2;SDS_P1;SDS_P2;PMS_P1;PMS_P2;Temp;Humidity;BMP_temperature;BMP_pressure;BME280_temperature;BME280_humidity;BME280_pressure;Samples;Min_cycle;Max_cycle;Signal;HPM_P1;HPM_P2
2022/04/22 00:02:33;;;;;;;;;;;;;;;;;;8351737;28;28081;-73
2022/04/22 00:06:34;;;;;;;;;;;;;;;;;;8353695;28;27232;-73
2022/04/22 00:10:34;;;;;;;;;;;;;;;;;;8355719;28;27225;-73
2022/04/22 00:14:34;;;;;;;;;;;;;;;;;;8354726;28;27200;-72
2022/04/22 00:18:34;;;;;;;;;;;;;;;;;;8354424;28;27317;-73
2022/04/22 00:22:34;;;;;;;;;;;;;;;;;;8356828;28;27861;-73
2022/04/22 00:26:34;;;;;;;;;;;;;;;;;;8353799;28;27255;-73
2022/04/22 00:30:34;;;;;;;;;;;;;;;;;;8354859;28;27135;-73
2022/04/22 00:34:35;;;;;;;;;;;;;;;;;;8351497;28;27369;-73
2022/04/22 00:38:35;;;;;;;;;;;;;;;;;;8338117;28;28206;-73
2022/04/22 00:42:36;;;;;;;;;;;;;;;;;;8355842;28;27653;-73
2022/04/22 00:46:36;;;;;;;;;;;;;;;;;;8359366;28;27146;-73
2022/04/22 00:50:36;;;;;;;;;;;;;;;;;;8345380;28;28500;-73
2022/04/22 00:54:37;;;;;;;;;;;;;;;;;;8342830;28;29519;-73
2022/04/22 00:58:37;;;;;;;;;;;;;;;;;;8358649;28;27213;-73
2022/04/22 01:02:37;;;;;;;;;;;;;;;;;;8353089;28;27407;-73
2022/04/22 01:10:56;;;;;;;;;;;;;;;;;;8364015;28;27261;-73
2022/04/22 01:14:56;;;;;;;;;;;;;;;;;;8362283;28;27434;-73
2022/04/22 01:18:56;;;;;;;;;;;;;;;;;;8359746;28;27853;-73
2022/04/22 01:22:58;;;;;;;;;;;;;;;;;;8348660;28;28643;-73
2022/04/22 01:26:58;;;;;;;;;;;;;;;;;;8360513;28;28097;-73
2022/04/22 01:30:58;;;;;;;;;;;;;;;;;;8359490;28;27837;-73
2022/04/22 01:35:00;;;;;;;;;;;;;;;;;;8360889;28;27394;-73
2022/04/22 01:39:02;;;;;;;;;;;;;;;;;;8361902;28;27299;-73
2022/04/22 01:43:04;;;;;;;;;;;;;;;;;;8362187;28;28023;-73
2022/04/22 01:47:04;;;;;;;;;;;;;;;;;;8341377;28;28243;-73
2022/04/22 01:51:05;;;;;;;;;;;;;;;;;;8344892;28;28466;-73
2022/04/22 01:55:05;;;;;;;;;;;;;;;;;;8358174;28;27390;-73
2022/04/22 01:59:05;;;;;;;;;;;;;;;;;;8356696;28;28213;-73
2022/04/22 02:03:05;;;;;;;;;;;;;;;;;;8359348;28;27401;-73
2022/04/22 02:07:05;;;;;;;;;;;;;;;;;;8359069;28;27072;-73
2022/04/22 02:11:05;;;;;;;;;;;;;;;;;;8359781;28;27510;-73
2022/04/22 02:15:05;;;;;;;;;;;;;;;;;;8354785;28;27360;-73
2022/04/22 02:19:06;;;;;;;;;;;;;;;;;;8357438;28;27406;-73
2022/04/22 02:23:06;;;;;;;;;;;;;;;;;;8343830;28;29568;-73
2022/04/22 02:31:25;;;;;;;;;;;;;;;;;;8356525;28;27485;-73
2022/04/22 02:35:25;;;;;;;;;;;;;;;;;;8356478;28;27942;-73
2022/04/22 02:39:25;;;;;;;;;;;;;;;;;;8356161;28;27309;-73
2022/04/22 02:47:44;;;;;;;;;;;;;;;;;;8357706;28;27379;-73
2022/04/22 02:51:44;;;;;;;;;;;;;;;;;;8359058;28;27278;-73
2022/04/22 02:55:44;;;;;;;;;;;;;;;;;;8331236;28;28187;-73
2022/04/22 02:59:45;;;;;;;;;;;;;;;;;;8354041;28;27558;-73
2022/04/22 03:03:45;;;;;;;;;;;;;;;;;;8356790;28;27859;-73
2022/04/22 03:07:45;;;;;;;;;;;;;;;;;;8352871;28;27607;-73
2022/04/22 03:11:45;;;;;;;;;;;;;;;;;;8355676;28;27812;-73
2022/04/22 03:15:45;;;;;;;;;;;;;;;;;;8336284;28;28566;-73
2022/04/22 03:19:45;;;;;;;;;;;;;;;;;;8358754;28;27202;-73
2022/04/22 03:23:45;;;;;;;;;;;;;;;;;;8357097;28;27188;-73
2022/04/22 03:27:45;;;;;;;;;;;;;;;;;;8355936;28;27390;-73
2022/04/22 03:31:46;;;;;;;;;;;;;;;;;;8357210;28;27661;-73
2022/04/22 03:35:50;;;;;;;;;;;;;;;;;;8353863;28;27195;-73
2022/04/22 03:39:50;;;;;;;;;;;;;;;;;;8358419;28;27531;-73
2022/04/22 03:43:50;;;;;;;;;;;;;;;;;;8352956;28;27193;-73
2022/04/22 03:47:50;;;;;;;;;;;;;;;;;;8354429;28;27269;-73
2022/04/22 03:51:50;;;;;;;;;;;;;;;;;;8341292;28;27504;-74
2022/04/22 03:55:51;;;;;;;;;;;;;;;;;;8356168;28;27557;-74
2022/04/22 03:59:51;;;;;;;;;;;;;;;;;;8335475;28;28626;-73
2022/04/22 04:03:53;;;;;;;;;;;;;;;;;;8354401;28;28430;-73
2022/04/22 04:07:53;;;;;;;;;;;;;;;;;;8355117;28;27837;-73
2022/04/22 04:16:13;;;;;;;;;;;;;;;;;;8352414;28;27522;-73
2022/04/22 04:24:32;;;;;;;;;;;;;;;;;;8354268;28;27722;-73
2022/04/22 04:28:33;;;;;;;;;;;;;;;;;;8340069;28;28423;-73
2022/04/22 04:32:34;;;;;;;;;;;;;;;;;;8335635;28;29097;-73
2022/04/22 04:36:34;;;;;;;;;;;;;;;;;;8348561;28;27560;-73
2022/04/22 04:40:34;;;;;;;;;;;;;;;;;;8351995;28;27237;-73
2022/04/22 04:44:34;;;;;;;;;;;;;;;;;;8348493;28;28085;-73
2022/04/22 04:48:34;;;;;;;;;;;;;;;;;;8354856;28;27614;-73
2022/04/22 04:52:37;;;;;;;;;;;;;;;;;;8355420;28;28033;-73
2022/04/22 04:56:37;;;;;;;;;;;;;;;;;;8335473;28;28339;-73
2022/04/22 05:00:37;;;;;;;;;;;;;;;;;;8357013;28;27456;-74
2022/04/22 05:04:37;;;;;;;;;;;;;;;;;;8352184;28;27365;-73
2022/04/22 05:08:37;;;;;;;;;;;;;;;;;;8356414;28;27391;-73
2022/04/22 05:12:37;;;;;;;;;;;;;;;;;;8334427;28;28558;-74
2022/04/22 05:16:37;;;;;;;;;;;;;;;;;;8353709;28;27402;-74
2022/04/22 05:20:38;;;;;;;;;;;;;;;;;;8354955;28;27642;-74
2022/04/22 05:24:38;;;;;;;;;;;;;;;;;;8336171;28;28759;-74
2022/04/22 05:28:38;;;;;;;;;;;;;;;;;;8338229;28;28422;-73
2022/04/22 05:32:43;;;;;;;;;;;;;;;;;;8356623;28;27602;-74
2022/04/22 05:36:43;;;;;;;;;;;;;;;;;;8354329;28;27573;-74
2022/04/22 05:40:47;;;;;;;;;;;;;;;;;;8359199;28;27358;-74
2022/04/22 05:44:48;;;;;;;;;;;;;;;;;;8358650;28;27754;-73
2022/04/22 05:48:48;;;;;;;;;;;;;;;;;;8343874;28;28190;-73
2022/04/22 05:52:48;;;;;;;;;;;;;;;;;;8357075;28;28036;-74
2022/04/22 05:56:48;;;;;;;;;;;;;;;;;;8361740;28;27409;-74
2022/04/22 06:00:49;;;;;;;;;;;;;;;;;;8362140;28;27967;-74
2022/04/22 06:04:49;;;;;;;;;;;;;;;;;;8337957;28;28496;-74
2022/04/22 06:13:08;;;;;;;;;;;;;;;;;;8355610;28;27729;-73
2022/04/22 06:17:08;;;;;;;;;;;;;;;;;;8340324;28;28163;-73
2022/04/22 06:21:08;;;;;;;;;;;;;;;;;;8356741;28;27511;-73
2022/04/22 06:25:09;;;;;;;;;;;;;;;;;;8354486;28;27583;-73
2022/04/22 06:29:09;;;;;;;;;;;;;;;;;;8360123;28;27687;-73
2022/04/22 06:33:09;;;;;;;;;;;;;;;;;;8335136;28;28426;-73
2022/04/22 06:37:10;;;;;;;;;;;;;;;;;;8358289;28;27393;-73
2022/04/22 06:45:48;;;;;;;;;;;;;;;;;;8355305;28;27526;-73
2022/04/22 06:49:48;;;;;;;;;;;;;;;;;;8333479;28;28222;-74
2022/04/22 06:53:50;;;;;;;;;;;;;;;;;;8341812;28;28447;-74
2022/04/22 06:57:50;;;;;;;;;;;;;;;;;;8357558;28;27530;-74
2022/04/22 07:01:50;;;;;;;;;;;;;;;;;;8360019;28;27412;-73
2022/04/22 07:05:51;;;;;;;;;;;;;;;;;;8335813;28;28444;-74
2022/04/22 07:09:51;;;;;;;;;;;;;;;;;;8355933;28;28081;-74
2022/04/22 07:13:51;;;;;;;;;;;;;;;;;;8354528;28;27788;-73
2022/04/22 07:17:52;;;;;;;;;;;;;;;;;;8353609;28;28270;-74
2022/04/22 07:21:52;;;;;;;;;;;;;;;;;;8356557;28;27291;-74
2022/04/22 07:25:52;;;;;;;;;;;;;;;;;;8352052;28;27384;-74
2022/04/22 07:29:52;;;;;;;;;;;;;;;;;;8357153;28;27432;-74
2022/04/22 07:33:54;;;;;;;;;;;;;;;;;;8337383;28;28332;-74
2022/04/22 07:37:54;;;;;;;;;;;;;;;;;;8337454;28;28281;-74
2022/04/22 07:41:56;;;;;;;;;;;;;;;;;;8337321;28;28184;-74
2022/04/22 07:50:15;;;;;;;;;;;;;;;;;;8354303;28;27872;-74
2022/04/22 07:54:15;;;;;;;;;;;;;;;;;;8338498;28;28200;-74
2022/04/22 07:58:15;;;;;;;;;;;;;;;;;;8355877;28;27591;-75
2022/04/22 08:02:15;;;;;;;;;;;;;;;;;;8353737;28;28113;-74
2022/04/22 08:06:16;;;;;;;;;;;;;;;;;;8352107;28;27139;-74
2022/04/22 08:10:16;;;;;;;;;;;;;;;;;;8352708;28;28490;-74
2022/04/22 08:14:16;;;;;;;;;;;;;;;;;;8351180;28;27472;-73
2022/04/22 08:18:16;;;;;;;;;;;;;;;;;;8351506;28;27200;-74
2022/04/22 08:22:18;;;;;;;;;;;;;;;;;;8350961;28;27361;-74
2022/04/22 08:26:18;;;;;;;;;;;;;;;;;;8352981;28;27374;-73
2022/04/22 08:30:18;;;;;;;;;;;;;;;;;;8358030;28;27361;-73
2022/04/22 08:34:18;;;;;;;;;;;;;;;;;;8358549;28;27542;-73
2022/04/22 08:38:18;;;;;;;;;;;;;;;;;;8339227;28;28347;-73
2022/04/22 08:42:21;;;;;;;;;;;;;;;;;;8338186;28;28180;-73
2022/04/22 08:50:43;;;;;;;;;;;;;;;;;;8352709;28;27352;-74
2022/04/22 08:54:43;;;;;;;;;;;;;;;;;;8334673;28;28553;-72
2022/04/22 08:58:43;;;;;;;;;;;;;;;;;;8337035;28;28382;-73
2022/04/22 09:02:44;;;;;;;;;;;;;;;;;;8356197;28;27555;-73
2022/04/22 09:06:45;;;;;;;;;;;;;;;;;;8354544;28;29215;-73
2022/04/22 09:10:46;;;;;;;;;;;;;;;;;;8360140;28;27377;-74
2022/04/22 09:14:46;;;;;;;;;;;;;;;;;;8337873;28;28189;-73
2022/04/22 09:18:46;;;;;;;;;;;;;;;;;;8353599;28;27823;-72
2022/04/22 09:22:46;;;;;;;;;;;;;;;;;;8355698;28;27851;-73
2022/04/22 09:26:46;;;;;;;;;;;;;;;;;;8333781;28;28474;-72
2022/04/22 09:30:46;;;;;;;;;;;;;;;;;;8355945;28;27599;-73
2022/04/22 09:34:47;;;;;;;;;;;;;;;;;;8337684;28;29682;-72
2022/04/22 09:43:06;;;;;;;;;;;;;;;;;;8359256;28;27547;-74
2022/04/22 09:47:06;;;;;;;;;;;;;;;;;;8358709;28;27981;-73
2022/04/22 09:51:06;;;;;;;;;;;;;;;;;;8360509;28;27922;-73
2022/04/22 09:55:07;;;;;;;;;;;;;;;;;;8358893;28;28089;-72
2022/04/22 09:59:07;;;;;;;;;;;;;;;;;;8356979;28;27151;-75
2022/04/22 10:03:07;;;;;;;;;;;;;;;;;;8356940;28;27562;-73
2022/04/22 10:07:07;;;;;;;;;;;;;;;;;;8361421;28;27468;-73
2022/04/22 10:11:07;;;;;;;;;;;;;;;;;;8355340;28;29097;-74
2022/04/22 10:15:09;;;;;;;;;;;;;;;;;;8358769;28;27768;-73
2022/04/22 10:19:09;;;;;;;;;;;;;;;;;;8338108;28;28574;-73
2022/04/22 10:23:09;;;;;;;;;;;;;;;;;;8354117;28;27375;-72
2022/04/22 10:27:10;;;;;;;;;;;;;;;;;;8357857;28;27764;-73
2022/04/22 10:31:10;;;;;;;;;;;;;;;;;;8358491;28;27105;-73
2022/04/22 10:35:10;;;;;;;;;;;;;;;;;;8355239;28;28238;-73
2022/04/22 10:39:11;;;;;;;;;;;;;;;;;;8358108;28;27116;-72
2022/04/22 10:43:11;;;;;;;;;;;;;;;;;;8355647;28;28190;-73
2022/04/22 10:47:14;;;;;;;;;;;;;;;;;;8337751;28;28175;-74
2022/04/22 10:51:14;;;;;;;;;;;;;;;;;;8358105;28;28127;-73
2022/04/22 10:55:15;;;;;;;;;;;;;;;;;;8353490;28;27207;-73
2022/04/22 10:59:15;;;;;;;;;;;;;;;;;;8355751;28;27539;-73
2022/04/22 11:03:19;;;;;;;;;;;;;;;;;;8356110;28;27491;-73
2022/04/22 11:07:34;;;;;;;;;;;;;;;;;;8340271;28;28558;-73
2022/04/22 11:11:37;;;;;;;;;;;;;;;;;;8359364;28;27319;-73
2022/04/22 11:15:51;;;;;;;;;;;;;;;;;;8353944;28;27240;-73
2022/04/22 11:19:51;;;;;;;;;;;;;;;;;;8356550;28;27155;-73
2022/04/22 11:23:51;;;;;;;;;;;;;;;;;;8356568;28;27535;-72
2022/04/22 11:27:51;;;;;;;;;;;;;;;;;;8355635;28;27885;-73
2022/04/22 11:31:52;;;;;;;;;;;;;;;;;;8358439;28;27226;-73
2022/04/22 11:35:53;;;;;;;;;;;;;;;;;;8357032;28;28376;-74
2022/04/22 11:39:56;;;;;;;;;;;;;;;;;;8361381;28;28310;-73
2022/04/22 11:43:56;;;;;;;;;;;;;;;;;;8359431;28;27277;-73
2022/04/22 11:47:59;;;;;;;;;;;;;;;;;;8356366;28;27387;-73
2022/04/22 11:51:59;;;;;;;;;;;;;;;;;;8352381;28;28954;-73
2022/04/22 11:55:59;;;;;;;;;;;;;;;;;;8356549;28;27661;-73
2022/04/22 12:08:50;;;;;;;;;;;;;;;;;;8326879;28;27401;-73
2022/04/22 12:12:51;;;;;;;;;;;;;;;;;;8344672;28;28594;-73
2022/04/22 12:16:51;;;;;;;;;;;;;;;;;;8339359;28;29211;-73
2022/04/22 12:20:51;;;;;;;;;;;;;;;;;;8358473;28;27208;-73
2022/04/22 12:24:51;;;;;;;;;;;;;;;;;;8355974;28;27235;-73
2022/04/22 12:28:51;;;;;;;;;;;;;;;;;;8356320;28;28047;-73
2022/04/22 12:32:52;;;;;;;;;;;;;;;;;;8355089;28;27360;-73
2022/04/22 12:36:52;;;;;;;;;;;;;;;;;;8355732;28;28404;-73
2022/04/22 12:40:52;;;;;;;;;;;;;;;;;;8359697;28;27382;-73
2022/04/22 12:53:37;;;;;;;;;;;;;;;;;;8358271;28;27287;-74
2022/04/22 12:57:40;;;;;;;;;;;;;;;;;;8361048;28;27261;-73
2022/04/22 13:01:40;;;;;;;;;;;;;;;;;;8360533;28;28071;-73
2022/04/22 13:05:40;;;;;;;;;;;;;;;;;;8353749;28;27561;-74
2022/04/22 13:09:40;;;;;;;;;;;;;;;;;;8355362;28;28436;-73
2022/04/22 13:13:41;;;;;;;;;;;;;;;;;;8342418;28;29343;-72
2022/04/22 13:17:41;;;;;;;;;;;;;;;;;;8358338;28;27471;-73
2022/04/22 13:21:41;;;;;;;;;;;;;;;;;;8355648;28;27935;-74
2022/04/22 13:25:41;;;;;;;;;;;;;;;;;;8359240;28;27904;-74
2022/04/22 13:29:41;;;;;;;;;;;;;;;;;;8356669;28;27596;-74
2022/04/22 13:33:42;;;;;;;;;;;;;;;;;;8340578;28;28639;-74
2022/04/22 13:37:42;;;;;;;;;;;;;;;;;;8339452;28;28279;-74
2022/04/22 13:41:42;;;;;;;;;;;;;;;;;;8362084;28;27418;-74
2022/04/22 13:54:20;;;;;;;;;;;;;;;;;;8358161;28;27913;-74
2022/04/22 13:58:20;;;;;;;;;;;;;;;;;;8352628;28;28272;-73
2022/04/22 14:02:20;;;;;;;;;;;;;;;;;;8340826;28;28375;-73
2022/04/22 14:06:21;;;;;;;;;;;;;;;;;;8351337;28;27733;-74
2022/04/22 14:10:21;;;;;;;;;;;;;;;;;;8353312;28;27619;-74
2022/04/22 14:17:41;;;;;;;;;;;;;;;;;;8487640;27;27846;-75
2022/04/22 14:21:41;;;;;;;;;;;;;;;;;;8414596;27;27768;-74
2022/04/22 14:25:41;;;;;;;;;;;;;;;;;;8410206;27;28767;-75
2022/04/22 14:29:41;;;;;;;;;;;;;;;;;;8410959;27;27419;-76
2022/04/22 14:33:42;;;;;;;;;;;;;;;;;;8408489;27;27682;-75
2022/04/22 14:37:42;;;;;;;;;;;;;;;;;;8410142;27;28214;-75
2022/04/22 14:41:42;;;;;;;;;;;;;;;;;;8414033;27;28014;-75
2022/04/22 14:45:42;;;;;;;;;;;;;;;;;;8413200;27;27106;-74
2022/04/22 14:49:42;;;;;;;;;;;;;;;;;;8410131;27;27751;-74
2022/04/22 14:53:43;;;;;;;;;;;;;;;;;;8411208;27;27341;-74
2022/04/22 14:57:44;;;;;;;;;;;;;;;;;;8412012;27;28473;-74
2022/04/22 15:01:44;;;;;;;;;;;;;;;;;;8407680;27;28202;-74
2022/04/22 15:05:44;;;;;;;;;;;;;;;;;;8407440;27;28622;-75
2022/04/22 15:09:44;;;;;;;;;;;;;;;;;;8404937;27;27580;-75
2022/04/22 15:13:44;;;;;;;;;;;;;;;;;;8410967;27;27338;-75
2022/04/22 15:26:22;;;;;;;;;;;;;;;;;;8398524;27;27638;-74
2022/04/22 15:30:22;;;;;;;;;;;;;;;;;;8387346;28;27384;-75
2022/04/22 15:34:23;;;;;;;;;;;;;;;;;;8389758;28;29135;-75
2022/04/22 15:38:23;;;;;;;;;;;;;;;;;;8389322;28;27503;-75
2022/04/22 15:42:24;;;;;;;;;;;;;;;;;;8389542;28;27705;-74
2022/04/22 15:46:24;;;;;;;;;;;;;;;;;;8390070;28;27412;-75
2022/04/22 15:50:24;;;;;;;;;;;;;;;;;;8388438;28;27975;-74
2022/04/22 15:54:24;;;;;;;;;;;;;;;;;;8389991;28;28386;-74
2022/04/22 15:58:24;;;;;;;;;;;;;;;;;;8394411;28;28575;-74
2022/04/22 16:02:25;;;;;;;;;;;;;;;;;;8386003;28;28139;-74
2022/04/22 16:06:25;;;;;;;;;;;;;;;;;;8378045;28;27504;-75
2022/04/22 16:10:25;;;;;;;;;;;;;;;;;;8385296;28;28661;-75
2022/04/22 16:18:44;;;;;;;;;;;;;;;;;;8380258;28;27752;-74
2022/04/22 16:22:45;;;;;;;;;;;;;;;;;;8395764;28;46299;-75
2022/04/22 16:26:45;;;;;;;;;;;;;;;;;;8389126;28;27306;-74
2022/04/22 16:30:45;;;;;;;;;;;;;;;;;;8386065;28;27859;-75
2022/04/22 16:34:45;;;;;;;;;;;;;;;;;;8386488;28;27136;-74
2022/04/22 16:38:45;;;;;;;;;;;;;;;;;;8385445;27;27705;-75
2022/04/22 16:42:45;;;;;;;;;;;;;;;;;;8390824;28;27577;-75
2022/04/22 16:46:46;;;;;;;;;;;;;;;;;;8386065;28;28388;-74
2022/04/22 16:50:46;;;;;;;;;;;;;;;;;;8389012;28;27578;-75
2022/04/22 16:54:46;;;;;;;;;;;;;;;;;;8380038;28;28279;-74
2022/04/22 16:58:48;;;;;;;;;;;;;;;;;;8382643;28;28817;-75
2022/04/22 17:02:48;;;;;;;;;;;;;;;;;;8384810;28;27244;-75
2022/04/22 17:06:50;;;;;;;;;;;;;;;;;;8381927;28;27291;-74
2022/04/22 17:10:51;;;;;;;;;;;;;;;;;;8382536;28;28283;-75
2022/04/22 17:23:31;;;;;;;;;;;;;;;;;;8385260;28;27116;-75
2022/04/22 17:27:31;;;;;;;;;;;;;;;;;;8384113;27;27565;-74
2022/04/22 17:31:31;;;;;;;;;;;;;;;;;;8387156;28;29250;-75
2022/04/22 17:35:32;;;;;;;;;;;;;;;;;;8415876;27;28158;-75
2022/04/22 17:39:32;;;;;;;;;;;;;;;;;;8382543;28;27090;-75
2022/04/22 17:43:32;;;;;;;;;;;;;;;;;;8389674;28;28386;-75
2022/04/22 17:47:32;;;;;;;;;;;;;;;;;;8386998;28;27843;-75
2022/04/22 17:51:34;;;;;;;;;;;;;;;;;;8388647;28;28303;-75
2022/04/22 17:55:34;;;;;;;;;;;;;;;;;;8383753;28;27632;-75
2022/04/22 17:59:34;;;;;;;;;;;;;;;;;;8387226;28;27609;-75
2022/04/22 18:03:34;;;;;;;;;;;;;;;;;;8382091;28;28182;-75
2022/04/22 18:07:34;;;;;;;;;;;;;;;;;;8380088;28;27302;-75
2022/04/22 18:11:34;;;;;;;;;;;;;;;;;;8383780;28;27405;-75
2022/04/22 18:19:53;;;;;;;;;;;;;;;;;;8389154;28;27868;-75
2022/04/22 18:23:54;;;;;;;;;;;;;;;;;;8380867;28;27269;-75
2022/04/22 18:27:55;;;;;;;;;;;;;;;;;;8388143;28;28791;-75
2022/04/22 18:31:56;;;;;;;;;;;;;;;;;;8387071;28;28174;-75
2022/04/22 18:35:56;;;;;;;;;;;;;;;;;;8382947;28;27431;-75
2022/04/22 18:39:57;;;;;;;;;;;;;;;;;;8385592;28;28498;-75
2022/04/22 18:43:57;;;;;;;;;;;;;;;;;;8378899;28;27524;-76
2022/04/22 18:47:57;;;;;;;;;;;;;;;;;;8388892;28;27664;-75
2022/04/22 18:51:59;;;;;;;;;;;;;;;;;;8383978;28;27362;-76
2022/04/22 18:55:59;;;;;;;;;;;;;;;;;;8378959;28;28463;-75
2022/04/22 18:59:59;;;;;;;;;;;;;;;;;;8401812;27;28429;-75
2022/04/22 19:03:59;;;;;;;;;;;;;;;;;;8382491;28;27685;-76
2022/04/22 19:07:59;;;;;;;;;;;;;;;;;;8385359;28;27691;-75
2022/04/22 19:12:00;;;;;;;;;;;;;;;;;;8388266;28;27481;-75
2022/04/22 19:16:02;;;;;;;;;;;;;;;;;;8386438;28;27121;-75
2022/04/22 19:20:03;;;;;;;;;;;;;;;;;;8391689;28;27923;-75
2022/04/22 19:24:03;;;;;;;;;;;;;;;;;;8386700;28;27327;-74
2022/04/22 19:28:03;;;;;;;;;;;;;;;;;;8390664;28;27797;-74
2022/04/22 19:32:04;;;;;;;;;;;;;;;;;;8388500;28;27385;-74
2022/04/22 19:40:47;;;;;;;;;;;;;;;;;;8412378;27;29037;-75
2022/04/22 19:45:00;;;;;;;;;;;;;;;;;;8373935;28;27622;-75
2022/04/22 19:49:00;;;;;;;;;;;;;;;;;;8384172;28;27300;-75
2022/04/22 19:53:00;;;;;;;;;;;;;;;;;;8381981;28;28307;-76
2022/04/22 19:57:00;;;;;;;;;;;;;;;;;;8382430;28;27612;-75
2022/04/22 20:01:00;;;;;;;;;;;;;;;;;;8383084;28;27349;-75
2022/04/22 20:05:00;;;;;;;;;;;;;;;;;;8383327;28;27459;-75
2022/04/22 20:09:01;;;;;;;;;;;;;;;;;;8384982;28;27469;-75
2022/04/22 20:13:01;;;;;;;;;;;;;;;;;;8385016;28;27773;-75
2022/04/22 20:17:01;;;;;;;;;;;;;;;;;;8382247;28;28593;-75
2022/04/22 20:21:01;;;;;;;;;;;;;;;;;;8419231;27;28284;-75
2022/04/22 20:25:01;;;;;;;;;;;;;;;;;;8385471;28;27081;-75
2022/04/22 20:29:01;;;;;;;;;;;;;;;;;;8382642;28;27429;-75
2022/04/22 20:33:01;;;;;;;;;;;;;;;;;;8390694;28;28001;-75
2022/04/22 20:41:20;;;;;;;;;;;;;;;;;;8389755;28;27540;-75
2022/04/22 20:45:20;;;;;;;;;;;;;;;;;;8382335;28;27304;-74
2022/04/22 20:49:20;;;;;;;;;;;;;;;;;;8381052;28;29345;-75
2022/04/22 20:57:39;;;;;;;;;;;;;;;;;;8379118;28;27467;-74
2022/04/22 21:01:40;;;;;;;;;;;;;;;;;;8377995;28;28379;-74
2022/04/22 21:05:40;;;;;;;;;;;;;;;;;;8380349;28;28332;-75
2022/04/22 21:09:40;;;;;;;;;;;;;;;;;;8383718;28;28144;-75
2022/04/22 21:13:41;;;;;;;;;;;;;;;;;;8378057;28;28209;-75
2022/04/22 21:17:41;;;;;;;;;;;;;;;;;;8381576;28;27935;-75
2022/04/22 21:21:42;;;;;;;;;;;;;;;;;;8384531;28;28294;-76
2022/04/22 21:25:42;;;;;;;;;;;;;;;;;;8379084;27;28465;-75
2022/04/22 21:29:44;;;;;;;;;;;;;;;;;;8385727;28;28486;-75
2022/04/22 21:33:45;;;;;;;;;;;;;;;;;;8379227;28;27382;-75
2022/04/22 21:37:47;;;;;;;;;;;;;;;;;;8383541;28;27297;-75
2022/04/22 21:41:47;;;;;;;;;;;;;;;;;;8386003;28;27423;-75
2022/04/22 21:45:48;;;;;;;;;;;;;;;;;;8384525;28;27713;-75
2022/04/22 21:49:48;;;;;;;;;;;;;;;;;;8379457;28;28287;-75
2022/04/22 21:53:48;;;;;;;;;;;;;;;;;;8382969;28;27405;-75
2022/04/22 21:57:48;;;;;;;;;;;;;;;;;;8392214;28;29679;-75
2022/04/22 22:01:49;;;;;;;;;;;;;;;;;;8382292;28;27385;-75
2022/04/22 22:05:49;;;;;;;;;;;;;;;;;;8377743;28;27426;-75
2022/04/22 22:09:49;;;;;;;;;;;;;;;;;;8412287;27;28170;-75
2022/04/22 22:13:49;;;;;;;;;;;;;;;;;;8377514;28;28711;-75
2022/04/22 22:17:49;;;;;;;;;;;;;;;;;;8383785;28;28280;-75
2022/04/22 22:21:49;;;;;;;;;;;;;;;;;;8380642;28;27181;-75
2022/04/22 22:25:49;;;;;;;;;;;;;;;;;;8380217;28;27340;-75
2022/04/22 22:29:49;;;;;;;;;;;;;;;;;;8379866;28;27097;-74
2022/04/22 22:33:50;;;;;;;;;;;;;;;;;;8380108;28;27369;-74
2022/04/22 22:37:50;;;;;;;;;;;;;;;;;;8385148;28;28471;-74
2022/04/22 22:41:50;;;;;;;;;;;;;;;;;;8389185;28;28005;-74
2022/04/22 22:45:50;;;;;;;;;;;;;;;;;;8384041;28;28324;-75
2022/04/22 22:49:50;;;;;;;;;;;;;;;;;;8393163;27;27683;-75
2022/04/22 22:53:50;;;;;;;;;;;;;;;;;;8385445;28;27463;-75
2022/04/22 22:57:51;;;;;;;;;;;;;;;;;;8383809;28;27502;-75
2022/04/22 23:01:51;;;;;;;;;;;;;;;;;;8393215;27;28191;-75
2022/04/22 23:05:51;;;;;;;;;;;;;;;;;;8384168;28;28251;-75
2022/04/22 23:09:51;;;;;;;;;;;;;;;;;;8392094;28;27884;-75
2022/04/22 23:13:53;;;;;;;;;;;;;;;;;;8385809;28;28337;-75
2022/04/22 23:17:55;;;;;;;;;;;;;;;;;;8392607;28;27834;-75
2022/04/22 23:21:55;;;;;;;;;;;;;;;;;;8391618;28;27938;-75
2022/04/22 23:25:56;;;;;;;;;;;;;;;;;;8389135;28;27960;-75
2022/04/22 23:29:56;;;;;;;;;;;;;;;;;;8389833;28;27411;-75
2022/04/22 23:33:58;;;;;;;;;;;;;;;;;;8386206;28;28160;-74
2022/04/22 23:37:58;;;;;;;;;;;;;;;;;;8390944;28;27150;-75
2022/04/22 23:41:58;;;;;;;;;;;;;;;;;;8391308;28;28157;-75
2022/04/22 23:46:01;;;;;;;;;;;;;;;;;;8390830;28;29459;-75
2022/04/22 23:50:01;;;;;;;;;;;;;;;;;;8391524;28;27745;-74
2022/04/22 23:54:02;;;;;;;;;;;;;;;;;;8383380;28;27192;-75
2022/04/22 23:58:02;;;;;;;;;;;;;;;;;;8386116;28;28468;-74
